Anton Chico, New Mexico
Current Conditions -  °F | °C
As of 10:46 PM on Tuesday 21 Oct 2014 (Local Time) from KLVS Reporting Station
Haze Haze  
Wind Chill: 50°   Ceiling: 200
Heat Index: 50°   Visibility: 2.5mi
Dew Point: 49°   Wind: 10mph
Humidity: 96%   Direction: 210°SSW
Pressure: 30.18"   Gusts: NA
Location:  35.2°N, 105.14°W
Report Text: KLVS 220446Z AUTO 21009KT 2 1/2SM BR BKN002 OVC017 10/09 A3018 RMK AO2 T01000094
Loading
Personal Weather Stations






























Interactive Weather Map
Tropical Storm Tracking
New forecast layout! Learn more

10-Day Weather Forecast

Advertisements
Track Severe Weather on mobile